Latest Weather Observations for Casterton

IDV60801

Issued at 5:52 am EDT Saturday 19 October 2019 (issued every 10 minutes, with the page automatically refreshed every 10 minutes)

About weather observations | Map of weather stations | Latest weather observations for VIC | Other Formats
Station Details ID: 090182 Name: CASTERTON Lat: -37.58 Lon: 141.33 Height: 130.6 m
Data from the previous 72 hours. | See also: Recent months at Casterton
Date/Time
EDT
Temp
°C
App
Temp
°C
Dew
Point
°C
Rel
Hum
%
Delta-T
°C
Wind Press
QNH
hPa
Press
MSL
hPa
Rain since
9am
mm
Dir  Spd
km/h
Gust
km/h
Spd
kts
Gust
kts
19/05:30am 5.3 2.1 4.9 97 0.2 WNW 11 13 6 7 1013.8 1013.7 1.6
19/05:00am 5.3 2.4 4.9 97 0.2 WNW 9 13 5 7 1013.7 1013.6 1.6
19/04:30am 5.6 1.9 4.7 94 0.4 WNW 13 15 7 8 1013.5 1013.4 1.6
19/04:00am 6.5 2.0 6.2 98 0.1 W 19 54 10 29 1013.9 1013.8 1.6
19/03:30am 6.4 2.7 6.3 99 0.0 WNW 15 24 8 13 1013.4 1013.3 1.6
19/03:00am 6.3 3.3 6.2 99 0.0 NW 11 15 6 8 1013.5 1013.4 1.6
19/02:30am 6.5 3.2 6.4 99 0.0 WNW 13 17 7 9 1013.7 1013.6 1.6
19/02:00am 7.0 3.8 6.9 99 0.0 WNW 13 19 7 10 1013.8 1013.7 1.6
19/01:30am 6.5 3.6 6.4 99 0.0 WNW 11 17 6 9 1013.8 1013.7 1.6
19/01:00am 6.0 3.0 5.9 99 0.0 NW 11 15 6 8 1013.8 1013.7 1.6
19/12:30am 7.4 4.7 7.3 99 0.0 NW 11 13 6 7 1013.8 1013.7 1.6
19/12:00am 7.0 4.2 6.9 99 0.0 NW 11 13 6 7 1013.8 1013.7 1.6
 
Date/Time
EDT
Temp
°C
App
Temp
°C
Dew
Point
°C
Rel
Hum
%
Delta-T
°C
Wind Press
QNH
hPa
Press
MSL
hPa
Rain since
9am
mm
Dir  Spd
km/h
Gust
km/h
Spd
kts
Gust
kts
18/11:30pm 7.3 4.5 7.0 98 0.1 NW 11 15 6 8 1014.0 1014.0 1.6
18/11:00pm 7.7 5.0 7.4 98 0.1 WNW 11 15 6 8 1014.0 1014.0 1.6
18/10:30pm 8.1 5.2 8.0 99 0.0 NW 13 19 7 10 1014.1 1014.1 1.6
18/10:00pm 7.8 5.1 7.5 98 0.1 WNW 11 13 6 7 1014.1 1014.1 1.4
18/09:30pm 7.8 5.1 7.4 97 0.2 W 11 15 6 8 1014.0 1014.0 1.4
18/09:00pm 8.8 5.1 7.9 94 0.4 WSW 17 22 9 12 1013.9 1013.8 1.4
18/08:30pm 9.9 7.2 7.2 83 1.3 W 11 15 6 8 1013.2 1013.1 0.8
18/08:00pm 10.2 6.6 6.9 80 1.6 W 15 22 8 12 1013.0 1012.9 0.8
18/07:30pm 11.1 6.1 6.6 74 2.1 W 22 32 12 17 1012.8 1012.7 0.8
18/07:00pm 11.9 5.4 6.6 70 2.5 W 30 46 16 25 1012.5 1012.4 0.8
18/06:30pm 12.4 7.4 8.1 75 2.1 W 24 39 13 21 1012.0 1011.9 0.8
18/06:00pm 12.6 8.9 10.0 84 1.3 W 20 32 11 17 1011.6 1011.6 0.8
18/05:30pm 11.6 6.0 10.0 90 0.8 W 30 43 16 23 1011.4 1011.4 0.8
18/05:00pm 12.8 8.6 11.2 90 0.8 WNW 24 37 13 20 1011.0 1011.0 0.6
18/04:30pm 11.9 6.5 10.8 93 0.6 WNW 30 48 16 26 1011.1 1011.1 0.6
18/04:09pm 11.1 4.9 10.0 93 0.6 W 33 52 18 28 1010.9 1010.9 0.6
18/04:00pm 11.5 4.8 9.6 88 1.0 W 35 54 19 29 1011.0 1011.0 0.2
18/03:55pm 12.1 5.0 9.7 85 1.2 W 37 61 20 33 1010.9 1010.9 0.0
18/03:49pm 14.2 8.2 10.2 77 2.1 WNW 32 56 17 30 1010.5 1010.5 0.0
18/03:30pm 15.1 9.1 10.9 76 2.2 NW 33 44 18 24 1010.2 1010.2 0.0
18/03:16pm 15.3 9.9 10.9 75 2.4 NW 30 48 16 26 1010.1 1010.1 0.0
18/03:00pm 14.8 9.1 11.0 78 2.0 NW 32 44 17 24 1010.5 1010.5 0.0
18/02:30pm 13.8 7.8 10.2 79 1.9 NW 32 46 17 25 1010.9 1010.9 0.0
18/02:05pm 14.1 7.9 9.3 73 2.5 NW 32 50 17 27 1011.1 1011.1 0.0
18/02:00pm 14.0 7.5 8.8 71 2.6 NW 33 50 18 27 1011.0 1011.0 0.0
18/01:32pm 13.9 8.0 8.9 72 2.5 NNW 30 48 16 26 1011.2 1011.2 0.0
18/01:30pm 13.9 7.6 8.9 72 2.5 NNW 32 48 17 26 1011.2 1011.2 0.0
18/01:07pm 14.0 7.1 8.8 71 2.6 NNW 35 54 19 29 1011.2 1011.2 0.0
18/01:00pm 13.8 7.5 8.8 72 2.5 NW 32 46 17 25 1011.4 1011.4 0.0
18/12:43pm 13.7 7.2 9.0 73 2.4 NNW 33 52 18 28 1011.7 1011.7 0.0
18/12:30pm 13.8 6.9 8.8 72 2.5 NNW 35 48 19 26 1011.6 1011.6 0.0
18/12:00pm 13.2 6.3 8.9 75 2.2 NNW 35 54 19 29 1012.1 1012.0 0.0
18/11:56am 13.5 7.0 9.0 74 2.3 NNW 33 54 18 29 1012.0 1011.9 0.0
18/11:30am 12.3 6.2 8.2 76 2.0 NNW 30 44 16 24 1012.5 1012.4 0.0
18/11:19am 12.6 5.9 8.3 75 2.1 NNW 33 57 18 31 1012.4 1012.3 0.0
18/11:00am 13.3 7.0 8.8 74 2.3 NNW 32 48 17 26 1012.5 1012.4 0.0
18/10:36am 12.9 7.5 9.4 79 1.8 NNW 28 46 15 25 1012.6 1012.5 0.0
18/10:30am 12.7 6.9 9.3 80 1.7 NNW 30 43 16 23 1012.6 1012.5 0.0
18/10:15am 11.7 5.7 8.6 81 1.5 NNW 30 48 16 26 1012.8 1012.7 0.0
18/10:00am 11.5 5.8 8.5 82 1.5 NNW 28 44 15 24 1012.8 1012.7 0.0
18/09:44am 11.4 5.4 8.6 83 1.4 NNW 30 48 16 26 1013.0 1012.9 0.0
18/09:30am 11.0 5.3 8.2 83 1.4 NNW 28 43 15 23 1013.2 1013.1 0.0
18/09:00am 10.1 5.0 7.5 84 1.3 NNW 24 35 13 19 1013.2 1013.1 -
18/08:30am 9.3 4.1 7.3 87 1.0 NNW 24 37 13 20 1013.4 1013.3 0.0
18/08:00am 8.4 3.4 6.5 88 0.9 NNW 22 30 12 16 1013.4 1013.3 0.0
18/07:30am 8.0 2.5 6.1 88 0.9 N 24 35 13 19 1013.2 1013.1 0.0
18/07:00am 7.5 2.7 5.8 89 0.8 NNW 20 30 11 16 1013.1 1013.0 0.0
18/06:30am 7.6 2.9 6.1 90 0.7 NNW 20 30 11 16 1013.2 1013.1 0.0
18/06:00am 7.6 2.5 5.9 89 0.8 NNW 22 33 12 18 1013.1 1013.0 0.0
18/05:30am 7.8 3.1 5.9 88 0.9 NNW 20 28 11 15 1013.2 1013.1 0.0
18/05:00am 8.3 3.8 6.1 86 1.0 NNW 19 24 10 13 1013.5 1013.4 0.0
18/04:30am 8.4 3.7 6.0 85 1.1 NNW 20 30 11 16 1013.6 1013.5 0.0
18/04:00am 8.4 3.7 6.0 85 1.1 NNW 20 26 11 14 1013.8 1013.7 0.0
18/03:30am 8.3 3.7 5.8 84 1.1 NNW 19 28 10 15 1014.2 1014.2 0.0
18/03:00am 8.4 3.9 5.9 84 1.1 NNW 19 24 10 13 1014.6 1014.6 0.0
18/02:30am 8.8 5.0 5.9 82 1.3 NNW 15 20 8 11 1014.9 1014.9 0.0
18/02:00am 8.9 4.8 6.0 82 1.3 N 17 22 9 12 1015.3 1015.3 0.0
18/01:30am 9.1 5.3 5.8 80 1.5 NNW 15 20 8 11 1015.7 1015.7 0.0
18/01:00am 9.1 5.7 5.7 79 1.6 NNW 13 20 7 11 1015.9 1015.9 0.0
18/12:30am 8.8 5.3 5.4 79 1.5 NNW 13 17 7 9 1015.9 1015.9 0.0
18/12:00am 8.7 5.5 5.1 78 1.6 NNW 11 19 6 10 1016.0 1016.0 0.0
 
Date/Time
EDT
Temp
°C
App
Temp
°C
Dew
Point
°C
Rel
Hum
%
Delta-T
°C
Wind Press
QNH
hPa
Press
MSL
hPa
Rain since
9am
mm
Dir  Spd
km/h
Gust
km/h
Spd
kts
Gust
kts
17/11:30pm 8.1 5.4 5.6 84 1.1 N 9 11 5 6 1016.1 1016.1 0.0
17/11:00pm 7.6 5.0 4.2 79 1.5 NNW 7 11 4 6 1016.2 1016.2 0.0
17/10:30pm 9.1 5.0 4.5 73 2.1 NW 15 20 8 11 1016.5 1016.5 0.0
17/10:00pm 9.7 6.2 5.3 74 2.0 NW 13 19 7 10 1016.6 1016.6 0.0
17/09:30pm 9.8 6.5 4.6 70 2.3 WNW 11 17 6 9 1016.6 1016.6 0.0
17/09:00pm 10.0 5.5 4.0 66 2.7 WNW 17 24 9 13 1016.4 1016.4 0.0
17/08:30pm 10.2 5.3 5.2 71 2.3 WNW 20 30 11 16 1016.4 1016.4 0.0
17/08:00pm 10.4 7.5 6.4 76 1.9 W 11 13 6 7 1016.3 1016.3 0.0
17/07:30pm 10.6 7.3 6.2 74 2.1 W 13 19 7 10 1016.2 1016.2 0.0
17/07:00pm 10.8 6.7 6.0 72 2.2 W 17 24 9 13 1016.0 1016.0 0.0
17/06:30pm 10.9 6.4 6.1 72 2.3 W 19 28 10 15 1015.6 1015.6 0.0
17/06:00pm 10.9 5.0 5.9 71 2.3 W 26 39 14 21 1015.4 1015.4 0.0
17/05:30pm 11.6 6.5 6.1 69 2.6 W 22 32 12 17 1015.1 1015.1 0.0
17/05:00pm 11.8 5.7 5.0 63 3.1 W 26 39 14 21 1014.7 1014.7 0.0
17/04:30pm 11.6 5.8 6.3 70 2.5 W 26 39 14 21 1014.5 1014.5 0.0
17/04:00pm 12.1 7.0 6.2 67 2.8 W 22 33 12 18 1014.4 1014.4 0.0
17/03:30pm 11.4 5.2 6.1 70 2.5 WSW 28 41 15 22 1014.4 1014.4 0.0
17/03:04pm 11.5 5.4 6.4 71 2.4 W 28 46 15 25 1014.4 1014.4 0.0
17/03:00pm 11.5 4.4 6.2 70 2.5 W 33 48 18 26 1014.5 1014.5 0.0
17/02:38pm 11.8 5.6 6.1 68 2.7 W 28 46 15 25 1014.4 1014.4 0.0
17/02:30pm 11.9 4.9 6.2 68 2.7 W 32 46 17 25 1014.4 1014.4 0.0
17/02:00pm 11.9 6.3 7.0 72 2.4 W 26 39 14 21 1014.2 1014.2 0.0
17/01:49pm 12.1 6.0 6.8 70 2.5 W 28 46 15 25 1014.0 1014.0 0.0
17/01:30pm 12.0 4.6 6.7 70 2.5 WSW 35 46 19 25 1013.9 1013.8 0.0
17/01:19pm 12.2 5.4 7.1 71 2.5 W 32 50 17 27 1013.7 1013.6 0.0
17/01:00pm 11.9 4.9 6.2 68 2.7 W 32 48 17 26 1013.5 1013.4 0.0
17/12:35pm 11.0 3.4 5.7 70 2.5 WSW 35 54 19 29 1013.4 1013.3 0.0
17/12:30pm 11.2 4.0 5.9 70 2.5 WSW 33 50 18 27 1013.3 1013.2 0.0
17/12:00pm 11.5 4.3 5.8 68 2.7 W 33 54 18 29 1013.1 1013.0 0.0
17/11:30am 11.8 4.2 5.9 67 2.8 W 35 56 19 30 1012.6 1012.5 0.0
17/11:00am 11.6 4.1 6.3 70 2.5 W 35 56 19 30 1012.3 1012.2 0.0
17/10:31am 11.5 3.2 6.0 69 2.6 W 39 57 21 31 1012.1 1012.0 0.0
17/10:30am 11.5 3.2 6.0 69 2.6 W 39 56 21 30 1012.0 1011.9 0.0
17/10:01am 11.0 4.8 7.7 80 1.6 W 30 48 16 26 1011.4 1011.4 0.0
17/10:00am 11.1 4.9 8.0 81 1.5 W 30 44 16 24 1011.4 1011.4 0.0
17/09:50am 10.5 3.9 7.6 82 1.4 W 32 50 17 27 1011.3 1011.3 0.0
17/09:30am 9.9 4.0 7.3 84 1.2 WNW 28 41 15 22 1011.3 1011.3 0.0
17/09:02am 8.8 2.8 7.1 89 0.8 W 28 46 15 25 1011.1 1011.1 0.0
17/09:00am 8.9 3.3 7.2 89 0.8 W 26 46 14 25 1011.1 1011.1 8.8
17/08:30am 7.9 3.5 6.7 92 0.6 WNW 19 32 10 17 1010.7 1010.7 8.8
17/08:00am 7.4 3.4 6.7 95 0.3 WNW 17 26 9 14 1010.5 1010.5 8.8
17/07:30am 6.5 2.4 6.4 99 0.0 WNW 17 24 9 13 1010.1 1010.1 8.8
17/07:00am 6.1 1.9 5.8 98 0.1 WNW 17 22 9 12 1009.7 1009.7 8.8
17/06:30am 6.1 1.6 6.0 99 0.0 WNW 19 24 10 13 1009.2 1009.2 8.8
17/06:00am 6.6 2.9 6.5 99 0.0 WNW 15 20 8 11 1009.0 1009.0 8.6
17/05:30am 6.6 2.6 6.5 99 0.0 WNW 17 20 9 11 1008.8 1008.8 7.4
17/05:00am 6.7 3.4 6.6 99 0.0 WNW 13 24 7 13 1008.4 1008.4 6.8
17/04:30am 6.8 2.2 6.7 99 0.0 SW 20 32 11 17 1008.4 1008.4 4.8
17/04:00am 6.4 2.3 6.3 99 0.0 WNW 17 26 9 14 1008.1 1008.1 4.8
17/03:30am 6.5 2.1 6.4 99 0.0 NW 19 30 10 16 1008.1 1008.1 4.6
17/03:00am 6.6 2.1 6.3 98 0.1 WNW 19 32 10 17 1008.0 1008.0 4.6
17/02:30am 7.1 3.1 6.8 98 0.1 WNW 17 28 9 15 1008.2 1008.2 4.6
17/02:00am 7.5 3.2 6.9 96 0.3 WNW 19 28 10 15 1008.4 1008.4 4.4
17/01:30am 7.6 2.0 7.3 98 0.1 NW 26 35 14 19 1008.5 1008.5 4.4
17/01:00am 7.2 3.7 7.1 99 0.0 NNW 15 20 8 11 1008.5 1008.5 4.2
17/12:30am 7.4 3.9 7.3 99 0.0 NNW 15 22 8 12 1008.5 1008.5 4.2
17/12:00am 7.7 4.7 7.6 99 0.0 NW 13 19 7 10 1008.6 1008.6 4.2
 
Date/Time
EDT
Temp
°C
App
Temp
°C
Dew
Point
°C
Rel
Hum
%
Delta-T
°C
Wind Press
QNH
hPa
Press
MSL
hPa
Rain since
9am
mm
Dir  Spd
km/h
Gust
km/h
Spd
kts
Gust
kts
16/11:30pm 8.1 5.2 8.0 99 0.0 NW 13 17 7 9 1009.2 1009.2 3.6
16/11:00pm 8.4 5.5 8.3 99 0.0 WNW 13 19 7 10 1008.9 1008.9 3.6
16/10:30pm 8.8 3.5 8.4 97 0.2 WNW 26 39 14 21 1009.2 1009.2 3.4
16/10:07pm 9.8 4.1 8.2 90 0.8 NW 28 52 15 28 1009.1 1009.1 2.0
16/10:00pm 10.6 5.6 8.0 84 1.3 NW 24 35 13 19 1008.7 1008.7 0.6
16/09:30pm 11.2 7.6 6.9 75 2.1 NNW 15 19 8 10 1008.7 1008.7 0.4
16/09:00pm 11.5 7.5 6.6 72 2.3 NNW 17 32 9 17 1008.7 1008.7 0.4
16/08:30pm 11.6 8.1 7.1 74 2.2 NW 15 26 8 14 1008.6 1008.6 0.4
16/08:00pm 11.8 8.1 6.5 70 2.5 NW 15 20 8 11 1008.7 1008.7 0.4
16/07:30pm 12.5 8.0 5.9 64 3.1 NW 19 24 10 13 1008.8 1008.8 0.4
16/07:00pm 14.2 10.0 7.3 63 3.4 WNW 19 28 10 15 1008.7 1008.7 0.4
16/06:30pm 14.7 10.3 6.5 58 4.0 WNW 19 28 10 15 1008.7 1008.7 0.4
16/06:00pm 15.3 10.8 6.8 57 4.2 W 20 33 11 18 1008.6 1008.6 0.4
16/05:30pm 15.8 10.3 6.0 52 4.8 WNW 24 39 13 21 1008.4 1008.4 0.4
16/05:06pm 15.6 9.7 5.8 52 4.7 W 26 48 14 26 1008.0 1008.0 0.4
16/05:00pm 14.5 8.1 5.3 54 4.4 W 28 41 15 22 1008.2 1008.2 0.4
16/04:30pm 16.5 11.3 7.4 55 4.6 WNW 24 35 13 19 1008.1 1008.1 0.4
16/04:00pm 17.0 12.9 8.7 58 4.3 W 20 35 11 19 1008.1 1008.1 0.4
16/03:30pm 15.5 10.8 9.4 67 3.2 W 24 35 13 19 1008.3 1008.3 0.4
16/03:00pm 16.3 12.7 9.9 66 3.4 W 19 32 10 17 1008.6 1008.6 0.4
16/02:30pm 16.9 14.3 10.7 67 3.3 W 15 28 8 15 1008.9 1008.9 0.4
16/02:00pm 16.0 12.6 10.7 71 2.8 W 19 28 10 15 1009.3 1009.3 0.4
16/01:30pm 16.1 13.0 11.7 75 2.4 W 19 28 10 15 1009.4 1009.4 0.4
16/01:00pm 14.6 11.9 11.7 83 1.6 W 17 24 9 13 1009.6 1009.6 0.4
16/12:30pm 14.2 11.8 12.8 91 0.8 W 17 22 9 12 1010.0 1010.0 0.4
16/12:00pm 12.6 11.6 12.3 98 0.2 W 9 13 5 7 1010.0 1010.0 0.4
16/11:30am 11.8 10.2 11.6 99 0.1 SW 11 19 6 10 1010.5 1010.5 0.4
16/11:00am 12.1 10.2 11.9 99 0.1 W 13 20 7 11 1010.6 1010.6 0.0
16/10:30am 12.0 10.1 11.8 99 0.1 WNW 13 20 7 11 1010.8 1010.8 0.0
16/10:00am 11.7 10.1 11.5 99 0.1 WNW 11 13 6 7 1010.8 1010.8 0.0
16/09:30am 11.8 10.2 11.6 99 0.1 W 11 17 6 9 1010.6 1010.6 0.0
16/09:00am 10.9 9.1 10.7 99 0.1 W 11 15 6 8 1010.8 1010.8 0.2
16/08:30am 10.8 9.9 10.6 99 0.1 WNW 6 7 3 4 1010.6 1010.6 0.2
16/08:00am 10.1 8.8 10.0 99 0.1 W 7 9 4 5 1010.7 1010.7 0.2
16/07:30am 9.7 8.3 9.6 99 0.1 W 7 7 4 4 1010.6 1010.6 0.2
16/07:00am 9.5 7.7 9.4 99 0.1 SSW 9 11 5 6 1009.8 1009.8 0.2
16/06:30am 9.3 9.1 9.2 99 0.0 CALM 0 0 0 0 1010.2 1010.2 0.2
16/06:00am 9.5 9.4 9.4 99 0.1 CALM 0 0 0 0 1010.2 1010.2 0.2

Other formats

Comma delimited format used in spreadsheet applications
http://www.bom.gov.au/fwo/IDV60801/IDV60801.95825.axf

JavaScript Object Notation format (JSON) in row-major order
http://www.bom.gov.au/fwo/IDV60801/IDV60801.95825.json

Data quality

Most of these data are generated automatically and are frequently updated. Quality checks on data are not normally performed. It is possible for incorrect values to appear. Refer to information at About Latest Weather Observations and please check the disclaimer before using these data.